Time;durP1;ratioP1;P1;durP2;ratioP2;P2;SDS_P1;SDS_P2;PMS_P1;PMS_P2;Temp;Humidity;BMP_temperature;BMP_pressure;BME280_temperature;BME280_humidity;BME280_pressure;Samples;Min_cycle;Max_cycle;Signal;HPM_P1;HPM_P2
2023/03/05 00:00:45;;;;;;;3.30;1.00;;;9.70;80.40;;;;;;4936608;29;20114;-82
2023/03/05 00:03:10;;;;;;;3.67;0.90;;;9.70;79.90;;;;;;4938970;29;20059;-81
2023/03/05 00:05:36;;;;;;;2.28;1.00;;;9.70;80.00;;;;;;4936776;29;20134;-81
2023/03/05 00:08:02;;;;;;;4.20;0.90;;;9.70;79.90;;;;;;4953355;29;20087;-82
2023/03/05 00:10:27;;;;;;;3.70;1.15;;;9.70;79.90;;;;;;4952217;29;20027;-79
2023/03/05 00:12:53;;;;;;;3.72;1.10;;;9.70;79.90;;;;;;4952666;29;20035;-81
2023/03/05 00:15:18;;;;;;;4.22;1.27;;;9.70;79.90;;;;;;4934682;29;20198;-80
2023/03/05 00:17:43;;;;;;;2.85;0.88;;;9.70;79.90;;;;;;4952026;29;20410;-80
2023/03/05 00:20:09;;;;;;;3.92;0.82;;;9.70;79.90;;;;;;4935197;29;20035;-79
2023/03/05 00:22:36;;;;;;;2.58;1.00;;;9.70;80.00;;;;;;4952458;29;20114;-81
2023/03/05 00:25:03;;;;;;;2.53;0.80;;;9.70;79.90;;;;;;4955269;29;20486;-81
2023/03/05 00:27:28;;;;;;;2.53;0.85;;;9.70;79.90;;;;;;4955596;29;20424;-82
2023/03/05 00:29:54;;;;;;;3.00;1.00;;;9.70;79.90;;;;;;4955317;29;20035;-81
2023/03/05 00:32:19;;;;;;;2.53;0.88;;;9.70;80.00;;;;;;4937095;29;20024;-81
2023/03/05 00:34:45;;;;;;;3.75;1.00;;;9.60;79.90;;;;;;4954161;28;20041;-81
2023/03/05 00:37:10;;;;;;;3.70;0.90;;;9.70;80.00;;;;;;4937083;29;20494;-81
2023/03/05 00:39:36;;;;;;;3.30;1.30;;;9.70;80.00;;;;;;4953263;29;20490;-81
2023/03/05 00:42:01;;;;;;;3.78;1.13;;;9.60;79.90;;;;;;4935677;29;20082;-80
2023/03/05 00:44:27;;;;;;;2.33;0.80;;;9.70;80.00;;;;;;4934696;29;20486;-81
2023/03/05 00:46:52;;;;;;;2.53;0.82;;;9.70;80.00;;;;;;4952063;29;20067;-81
2023/03/05 00:49:18;;;;;;;1.63;0.80;;;9.70;80.00;;;;;;4935513;29;20449;-81
2023/03/05 00:51:43;;;;;;;3.38;0.85;;;9.70;80.00;;;;;;4952545;29;20438;-81
2023/03/05 00:54:09;;;;;;;3.20;1.00;;;9.70;80.00;;;;;;4952349;29;20038;-81
2023/03/05 00:56:34;;;;;;;1.90;0.70;;;9.70;80.00;;;;;;4935189;29;20031;-84
2023/03/05 00:59:00;;;;;;;2.10;0.93;;;9.70;80.00;;;;;;4935299;29;20386;-82
2023/03/05 01:01:27;;;;;;;2.88;0.80;;;9.70;80.00;;;;;;4934798;29;20090;-81
2023/03/05 01:03:55;;;;;;;3.70;1.08;;;9.70;80.00;;;;;;4933802;29;20041;-81
2023/03/05 01:06:20;;;;;;;2.67;0.73;;;9.70;80.00;;;;;;4951050;29;20019;-81
2023/03/05 01:08:46;;;;;;;2.38;0.77;;;9.70;80.00;;;;;;4933654;29;20038;-80
2023/03/05 01:11:12;;;;;;;2.67;0.73;;;9.70;80.00;;;;;;4936107;29;20510;-81
2023/03/05 01:13:37;;;;;;;2.00;0.77;;;9.70;80.10;;;;;;4937813;29;20169;-81
2023/03/05 01:16:03;;;;;;;2.58;0.90;;;9.70;80.00;;;;;;4933957;29;20043;-82
2023/03/05 01:18:29;;;;;;;2.38;0.90;;;9.70;80.10;;;;;;4933855;29;20035;-81
2023/03/05 01:20:54;;;;;;;3.63;1.13;;;9.70;80.10;;;;;;4951693;29;20058;-82
2023/03/05 01:23:20;;;;;;;2.33;0.80;;;9.70;80.10;;;;;;4935516;29;20329;-81
2023/03/05 01:25:51;;;;;;;2.95;0.75;;;9.70;80.10;;;;;;4950715;29;20032;-81
2023/03/05 01:28:16;;;;;;;4.75;1.40;;;9.70;80.10;;;;;;4951059;29;20031;-81
2023/03/05 01:30:42;;;;;;;2.90;0.80;;;9.70;80.10;;;;;;4934138;29;20062;-80
2023/03/05 01:33:07;;;;;;;1.98;0.75;;;9.70;80.10;;;;;;4948980;29;20029;-81
2023/03/05 01:35:33;;;;;;;3.22;0.90;;;9.70;80.00;;;;;;4931268;29;20470;-81
2023/03/05 01:37:58;;;;;;;3.22;1.00;;;9.70;80.00;;;;;;4931821;29;20175;-81
2023/03/05 01:40:26;;;;;;;3.10;1.10;;;9.70;80.10;;;;;;4931200;29;20039;-80
2023/03/05 01:43:05;;;;;;;2.42;1.00;;;9.60;80.00;;;;;;4931516;29;20076;-81
2023/03/05 01:45:31;;;;;;;3.45;1.38;;;9.70;80.10;;;;;;4948126;28;20486;-81
2023/03/05 01:47:57;;;;;;;3.17;0.98;;;9.70;80.10;;;;;;4930940;29;20031;-81
2023/03/05 01:50:24;;;;;;;2.13;0.90;;;9.70;80.10;;;;;;4931070;29;20514;-81
2023/03/05 01:52:58;;;;;;;3.00;0.88;;;9.70;80.10;;;;;;4948778;29;20600;-81
2023/03/05 01:55:27;;;;;;;3.95;1.10;;;9.70;80.10;;;;;;4930869;29;20508;-81
2023/03/05 01:57:56;;;;;;;2.47;0.90;;;9.70;80.10;;;;;;4930750;29;20114;-81
2023/03/05 02:00:27;;;;;;;2.60;0.98;;;9.70;80.10;;;;;;4930847;29;20183;-81
2023/03/05 02:02:53;;;;;;;2.72;0.90;;;9.70;80.10;;;;;;4932964;29;20039;-81
2023/03/05 02:05:30;;;;;;;3.47;1.20;;;9.60;80.00;;;;;;4935900;29;20504;-81
2023/03/05 02:08:01;;;;;;;2.28;0.90;;;9.70;80.10;;;;;;4935272;29;20050;-82
2023/03/05 02:10:31;;;;;;;2.42;0.90;;;9.70;80.10;;;;;;4950909;29;20023;-83
2023/03/05 02:13:04;;;;;;;2.17;0.93;;;9.60;80.10;;;;;;4933448;29;20027;-81
2023/03/05 02:15:31;;;;;;;2.07;0.90;;;9.70;80.10;;;;;;4896808;29;989572;-80
2023/03/05 02:17:56;;;;;;;3.08;1.05;;;9.70;80.10;;;;;;4931100;29;20670;-79
2023/03/05 02:20:24;;;;;;;2.67;1.00;;;9.70;80.10;;;;;;4930970;29;20030;-81
2023/03/05 02:22:50;;;;;;;3.50;1.20;;;9.70;80.20;;;;;;4931041;29;20035;-81
2023/03/05 02:25:27;;;;;;;4.05;1.10;;;9.70;80.20;;;;;;4932508;29;20118;-79
2023/03/05 02:27:58;;;;;;;3.67;1.00;;;9.70;80.10;;;;;;4939319;29;20091;-82
2023/03/05 02:30:24;;;;;;;3.20;1.10;;;9.70;80.20;;;;;;4921597;29;20091;-81
2023/03/05 02:32:50;;;;;;;3.38;1.20;;;9.70;80.20;;;;;;4938107;29;20514;-83
2023/03/05 02:35:15;;;;;;;2.78;1.10;;;9.70;80.20;;;;;;4936839;29;20024;-81
2023/03/05 02:37:41;;;;;;;2.53;1.00;;;9.70;80.20;;;;;;4922774;29;20119;-81
2023/03/05 02:40:09;;;;;;;2.72;1.00;;;9.70;80.20;;;;;;4955142;29;20031;-80
2023/03/05 02:42:34;;;;;;;2.85;1.02;;;9.70;80.20;;;;;;4955327;29;20107;-82
2023/03/05 02:45:01;;;;;;;3.35;1.00;;;9.70;80.10;;;;;;4937722;29;20110;-81
2023/03/05 02:47:27;;;;;;;2.35;0.90;;;9.60;80.10;;;;;;5015619;23;20093;-80
2023/03/05 02:49:53;;;;;;;2.80;1.08;;;9.70;80.20;;;;;;4994380;28;20026;-82
2023/03/05 02:52:19;;;;;;;3.33;1.10;;;9.70;80.20;;;;;;4995209;28;20022;-82
2023/03/05 02:54:45;;;;;;;4.65;1.15;;;9.70;80.20;;;;;;4994933;28;20482;-80
2023/03/05 02:57:10;;;;;;;1.88;1.00;;;9.70;80.20;;;;;;4994961;28;20061;-80
2023/03/05 02:59:36;;;;;;;2.88;0.95;;;9.70;80.20;;;;;;5014316;28;20396;-82
2023/03/05 03:02:01;;;;;;;3.33;0.95;;;9.70;80.20;;;;;;5015249;28;20113;-82
2023/03/05 03:04:27;;;;;;;2.58;1.10;;;9.70;80.30;;;;;;4998622;28;20448;-82
2023/03/05 03:06:53;;;;;;;2.88;1.10;;;9.70;80.20;;;;;;4998933;28;20025;-82
2023/03/05 03:09:18;;;;;;;2.40;1.00;;;9.70;80.20;;;;;;5015346;28;20022;-82
2023/03/05 03:11:44;;;;;;;3.42;1.10;;;9.70;80.20;;;;;;5016299;28;20076;-81
2023/03/05 03:14:09;;;;;;;2.88;1.00;;;9.70;80.20;;;;;;5015885;28;20041;-81
2023/03/05 03:16:35;;;;;;;3.60;1.20;;;9.70;80.20;;;;;;5016327;28;20134;-82
2023/03/05 03:19:00;;;;;;;2.90;1.23;;;9.70;80.20;;;;;;5015091;28;20034;-82
2023/03/05 03:21:26;;;;;;;3.17;1.30;;;9.70;80.20;;;;;;5015001;28;20400;-80
2023/03/05 03:23:52;;;;;;;3.63;1.00;;;9.70;80.20;;;;;;5014854;28;20032;-82
2023/03/05 03:26:18;;;;;;;3.45;1.08;;;9.70;80.20;;;;;;5016011;28;20029;-82
2023/03/05 03:28:44;;;;;;;4.05;1.23;;;9.70;80.20;;;;;;4996687;28;20033;-82
2023/03/05 03:31:09;;;;;;;2.15;0.93;;;9.60;80.20;;;;;;4998405;28;20030;-83
2023/03/05 03:33:35;;;;;;;2.55;1.10;;;9.60;80.20;;;;;;4998364;28;20118;-83
2023/03/05 03:36:02;;;;;;;2.72;0.90;;;9.70;80.30;;;;;;4998152;28;20030;-82
2023/03/05 03:38:27;;;;;;;2.70;1.00;;;9.60;80.20;;;;;;5015788;28;20432;-82
2023/03/05 03:40:53;;;;;;;1.67;1.00;;;9.70;80.20;;;;;;4998382;28;20053;-81
2023/03/05 03:43:18;;;;;;;3.22;0.98;;;9.70;80.30;;;;;;5015627;28;20026;-82
2023/03/05 03:45:44;;;;;;;3.15;1.10;;;9.70;80.20;;;;;;4997776;28;20389;-81
2023/03/05 03:48:10;;;;;;;2.15;0.88;;;9.60;80.20;;;;;;5015533;28;20033;-81
2023/03/05 03:50:40;;;;;;;1.92;0.90;;;9.70;80.20;;;;;;5015588;28;20026;-82
2023/03/05 03:53:06;;;;;;;2.90;0.93;;;9.70;80.30;;;;;;4998117;28;20025;-82
2023/03/05 03:55:32;;;;;;;3.08;1.15;;;9.70;80.30;;;;;;4997657;28;20074;-82
2023/03/05 03:57:57;;;;;;;2.58;0.93;;;9.70;80.30;;;;;;4998107;28;20053;-82
2023/03/05 04:00:23;;;;;;;3.10;1.25;;;9.70;80.30;;;;;;5015702;28;20166;-82
2023/03/05 04:02:48;;;;;;;2.92;1.10;;;9.70;80.30;;;;;;5015483;28;20033;-82
2023/03/05 04:05:14;;;;;;;3.17;1.02;;;9.60;80.20;;;;;;4997758;28;20026;-82
2023/03/05 04:07:39;;;;;;;2.53;1.05;;;9.60;80.20;;;;;;4997855;28;20026;-82
2023/03/05 04:10:05;;;;;;;2.42;0.98;;;9.60;80.20;;;;;;4997226;28;20033;-82
2023/03/05 04:12:31;;;;;;;3.40;1.27;;;9.60;80.20;;;;;;4997607;28;20022;-82
2023/03/05 04:14:56;;;;;;;3.58;1.23;;;9.70;80.30;;;;;;4997607;28;20395;-82
2023/03/05 04:17:22;;;;;;;2.40;1.00;;;9.70;80.30;;;;;;4997636;28;20029;-81
2023/03/05 04:19:47;;;;;;;2.03;0.90;;;9.70;80.30;;;;;;4997483;28;20081;-82
2023/03/05 04:22:15;;;;;;;2.53;0.85;;;9.60;80.20;;;;;;4997859;28;20440;-82
2023/03/05 04:24:41;;;;;;;2.50;1.00;;;9.60;80.20;;;;;;4997283;28;20510;-81
2023/03/05 04:27:07;;;;;;;3.08;1.10;;;9.60;80.20;;;;;;5014740;28;20034;-81
2023/03/05 04:29:33;;;;;;;2.78;1.10;;;9.60;80.20;;;;;;4997418;28;20021;-82
2023/03/05 04:31:59;;;;;;;3.33;1.10;;;9.60;80.30;;;;;;4997355;28;20516;-81
2023/03/05 04:34:25;;;;;;;3.03;1.23;;;9.60;80.20;;;;;;4997293;28;20116;-81
2023/03/05 04:36:50;;;;;;;2.88;1.20;;;9.60;80.20;;;;;;5014757;28;20030;-82
2023/03/05 04:39:16;;;;;;;2.95;1.02;;;9.60;80.20;;;;;;4997768;28;20033;-82
2023/03/05 04:41:42;;;;;;;3.05;1.00;;;9.70;80.30;;;;;;4997138;28;20026;-82
2023/03/05 04:44:07;;;;;;;2.30;0.95;;;9.60;80.30;;;;;;5014752;28;20026;-82
2023/03/05 04:46:33;;;;;;;2.70;1.20;;;9.70;80.30;;;;;;4997090;28;20038;-82
2023/03/05 04:48:58;;;;;;;2.92;1.10;;;9.60;80.20;;;;;;4996652;28;20131;-82
2023/03/05 04:51:24;;;;;;;2.88;1.23;;;9.70;80.30;;;;;;4996855;28;20081;-81
2023/03/05 04:53:49;;;;;;;2.88;1.05;;;9.60;80.30;;;;;;4996844;28;20033;-80
2023/03/05 04:56:15;;;;;;;1.77;0.90;;;9.60;80.20;;;;;;5014077;28;20033;-82
2023/03/05 04:58:41;;;;;;;2.15;0.93;;;9.60;80.30;;;;;;5014227;28;20022;-81
2023/03/05 05:01:06;;;;;;;2.50;1.00;;;9.60;80.30;;;;;;4996796;28;20053;-82
2023/03/05 05:03:32;;;;;;;2.65;1.10;;;9.60;80.30;;;;;;5014135;28;20397;-82
2023/03/05 05:06:00;;;;;;;3.42;1.35;;;9.70;80.40;;;;;;4996451;28;20025;-82
2023/03/05 05:08:27;;;;;;;2.50;1.02;;;9.60;80.30;;;;;;4996800;28;20097;-80
2023/03/05 05:10:59;;;;;;;3.03;1.20;;;9.60;80.30;;;;;;4996815;28;20022;-81
2023/03/05 05:13:25;;;;;;;2.53;1.00;;;9.60;80.30;;;;;;4996649;28;20018;-82
2023/03/05 05:15:51;;;;;;;2.70;1.10;;;9.60;80.30;;;;;;5013919;28;20018;-82
2023/03/05 05:18:16;;;;;;;2.08;1.00;;;9.70;80.30;;;;;;4996420;28;20026;-82
2023/03/05 05:20:42;;;;;;;2.45;0.90;;;9.70;80.30;;;;;;4995763;28;20022;-81
2023/03/05 05:23:07;;;;;;;3.38;1.20;;;9.60;80.30;;;;;;4996183;28;20393;-82
2023/03/05 05:25:33;;;;;;;1.55;0.88;;;9.60;80.30;;;;;;5013679;28;20034;-82
2023/03/05 05:27:58;;;;;;;2.20;1.10;;;9.60;80.30;;;;;;4995696;28;20022;-82
2023/03/05 05:30:24;;;;;;;2.28;1.08;;;9.60;80.30;;;;;;4994817;28;20028;-82
2023/03/05 05:32:49;;;;;;;3.17;1.15;;;9.60;80.30;;;;;;4996207;28;20045;-81
2023/03/05 05:35:15;;;;;;;2.22;0.98;;;9.60;80.30;;;;;;4995774;28;20037;-81
2023/03/05 05:37:40;;;;;;;3.53;1.17;;;9.60;80.30;;;;;;4996118;28;20029;-82
2023/03/05 05:40:07;;;;;;;2.40;1.05;;;9.60;80.30;;;;;;4996091;28;20050;-82
2023/03/05 05:42:33;;;;;;;1.92;1.08;;;9.60;80.30;;;;;;4995361;28;20033;-83
2023/03/05 05:44:59;;;;;;;3.17;1.08;;;9.60;80.30;;;;;;4995660;28;20120;-82
2023/03/05 05:47:24;;;;;;;2.92;1.20;;;9.70;80.40;;;;;;4995876;28;20065;-82
2023/03/05 05:49:50;;;;;;;3.38;1.45;;;9.60;80.30;;;;;;4995607;28;20623;-82
2023/03/05 05:52:16;;;;;;;2.55;1.13;;;9.60;80.30;;;;;;4995890;28;20036;-82
2023/03/05 05:54:42;;;;;;;2.75;1.10;;;9.60;80.30;;;;;;4995602;28;20080;-82
2023/03/05 05:57:08;;;;;;;2.15;1.10;;;9.60;80.30;;;;;;4995666;28;20034;-80
2023/03/05 05:59:33;;;;;;;4.43;1.30;;;9.60;80.30;;;;;;5013488;28;20026;-83
2023/03/05 06:01:59;;;;;;;1.65;0.90;;;9.60;80.30;;;;;;4995728;28;20463;-82
2023/03/05 06:04:25;;;;;;;3.47;1.00;;;9.60;80.30;;;;;;4995503;28;20033;-83
2023/03/05 06:06:50;;;;;;;2.85;1.08;;;9.60;80.30;;;;;;4995598;28;20380;-80
2023/03/05 06:09:16;;;;;;;2.45;0.98;;;9.60;80.30;;;;;;5013285;28;20037;-82
2023/03/05 06:11:41;;;;;;;4.22;1.48;;;9.60;80.30;;;;;;5013245;28;20029;-81
2023/03/05 06:14:08;;;;;;;2.05;0.95;;;9.60;80.30;;;;;;5012840;28;20571;-81
2023/03/05 06:16:34;;;;;;;2.35;1.00;;;9.60;80.30;;;;;;5012987;28;20527;-82
2023/03/05 06:19:03;;;;;;;3.05;1.10;;;9.60;80.40;;;;;;5012937;28;20030;-81
2023/03/05 06:21:28;;;;;;;3.88;1.40;;;9.60;80.40;;;;;;5012942;28;20081;-81
2023/03/05 06:23:54;;;;;;;3.83;1.17;;;9.60;80.40;;;;;;5013395;28;20034;-81
2023/03/05 06:26:21;;;;;;;2.30;0.93;;;9.60;80.40;;;;;;4993265;28;20026;-80
2023/03/05 06:28:47;;;;;;;3.20;1.40;;;9.60;80.40;;;;;;4991847;28;20032;-78
2023/03/05 06:31:15;;;;;;;3.00;1.10;;;9.60;80.40;;;;;;4993504;28;20026;-83
2023/03/05 06:33:42;;;;;;;2.88;0.98;;;9.60;80.40;;;;;;4988654;28;20645;-83
2023/03/05 06:36:10;;;;;;;2.22;1.00;;;9.60;80.40;;;;;;4986213;28;20113;-83
2023/03/05 06:38:37;;;;;;;1.58;0.80;;;9.60;80.40;;;;;;5004484;28;20109;-83
2023/03/05 06:41:05;;;;;;;2.67;1.00;;;9.60;80.40;;;;;;4978746;28;20117;-82
2023/03/05 06:43:34;;;;;;;2.67;0.90;;;9.60;80.30;;;;;;4979268;28;20058;-84
2023/03/05 06:46:11;;;;;;;2.65;1.02;;;9.60;80.30;;;;;;4978822;28;20568;-83
2023/03/05 06:48:37;;;;;;;2.95;1.08;;;9.60;80.40;;;;;;4979319;28;20124;-83
2023/03/05 06:51:02;;;;;;;2.17;0.90;;;9.50;80.30;;;;;;4996850;28;20437;-84
2023/03/05 06:53:28;;;;;;;1.98;0.90;;;9.60;80.40;;;;;;4979475;28;20023;-83
2023/03/05 06:55:54;;;;;;;2.47;1.23;;;9.60;80.30;;;;;;4995967;28;20481;-83
2023/03/05 06:58:19;;;;;;;2.70;1.10;;;9.60;80.30;;;;;;4979062;28;20037;-83
2023/03/05 07:00:45;;;;;;;2.97;1.10;;;9.60;80.30;;;;;;4979273;28;20034;-84
2023/03/05 07:03:11;;;;;;;2.80;1.20;;;9.60;80.90;;;;;;4996420;28;20124;-82
2023/03/05 07:05:38;;;;;;;1.80;0.90;;;9.60;80.40;;;;;;4977689;28;20591;-83
2023/03/05 07:08:03;;;;;;;1.58;0.90;;;9.60;80.40;;;;;;4978636;28;20023;-84
2023/03/05 07:10:29;;;;;;;2.03;0.93;;;9.60;80.40;;;;;;4977962;28;20456;-84
2023/03/05 07:12:55;;;;;;;2.25;0.95;;;9.60;80.40;;;;;;4978271;28;20458;-83
2023/03/05 07:15:20;;;;;;;1.77;1.00;;;9.60;80.40;;;;;;4977026;28;20022;-84
2023/03/05 07:17:46;;;;;;;1.75;0.80;;;9.60;80.40;;;;;;4977339;28;20139;-83
2023/03/05 07:20:12;;;;;;;2.15;1.00;;;9.60;80.40;;;;;;4994968;28;20030;-84
2023/03/05 07:22:37;;;;;;;1.90;1.00;;;9.60;80.40;;;;;;4978412;28;20410;-78
2023/03/05 07:25:03;;;;;;;2.70;1.00;;;9.60;80.40;;;;;;4975966;28;20035;-82
2023/03/05 07:27:29;;;;;;;1.58;0.98;;;9.60;80.40;;;;;;4993902;28;20445;-80
2023/03/05 07:29:54;;;;;;;2.25;1.00;;;9.60;80.40;;;;;;4975804;28;20126;-82
2023/03/05 07:32:20;;;;;;;2.45;1.00;;;9.60;80.40;;;;;;4975403;28;20023;-84
2023/03/05 07:34:45;;;;;;;1.63;0.90;;;9.60;80.40;;;;;;4993264;28;20030;-83
2023/03/05 07:37:12;;;;;;;2.00;0.90;;;9.60;80.40;;;;;;4976137;28;20033;-83
2023/03/05 07:39:38;;;;;;;2.25;1.00;;;9.60;80.40;;;;;;4976446;28;20525;-83
2023/03/05 07:42:03;;;;;;;3.30;1.15;;;9.50;80.30;;;;;;4976846;28;20034;-85
2023/03/05 07:44:29;;;;;;;1.75;1.00;;;9.60;80.40;;;;;;4977369;28;20038;-82
2023/03/05 07:46:54;;;;;;;2.95;1.27;;;9.60;80.40;;;;;;4980062;28;20463;-82
2023/03/05 07:49:20;;;;;;;1.98;0.93;;;9.60;80.40;;;;;;4997693;28;20032;-81
2023/03/05 07:51:45;;;;;;;1.77;0.90;;;9.60;80.40;;;;;;4997563;28;20154;-83
2023/03/05 07:54:11;;;;;;;1.33;0.90;;;9.60;80.40;;;;;;4980155;28;20394;-81
2023/03/05 07:56:36;;;;;;;2.45;1.15;;;9.60;80.40;;;;;;4980087;28;20404;-82
2023/03/05 07:59:05;;;;;;;2.55;1.10;;;9.60;80.40;;;;;;4979648;28;20034;-80
2023/03/05 08:01:32;;;;;;;1.67;0.90;;;9.60;80.40;;;;;;4996990;28;20063;-81
2023/03/05 08:03:58;;;;;;;2.33;1.00;;;9.60;80.40;;;;;;4979070;28;20030;-84
2023/03/05 08:06:23;;;;;;;2.10;1.08;;;9.60;80.40;;;;;;4979211;28;20033;-83
2023/03/05 08:08:49;;;;;;;2.72;0.90;;;9.60;80.40;;;;;;4979978;28;20038;-82
2023/03/05 08:11:15;;;;;;;2.47;1.20;;;9.60;80.40;;;;;;4999404;28;20014;-83
2023/03/05 08:13:42;;;;;;;2.85;1.10;;;9.60;80.40;;;;;;5016714;28;20054;-83
2023/03/05 08:16:19;;;;;;;3.38;1.02;;;9.70;80.40;;;;;;4997257;28;20493;-83
2023/03/05 08:18:45;;;;;;;2.90;1.38;;;9.60;80.30;;;;;;4980362;28;20057;-81
2023/03/05 08:21:16;;;;;;;2.47;1.10;;;9.70;80.30;;;;;;4980507;28;20066;-83
2023/03/05 08:23:42;;;;;;;2.95;1.00;;;9.70;80.20;;;;;;4993886;28;20034;-83
2023/03/05 08:26:15;;;;;;;2.00;1.00;;;9.70;80.20;;;;;;4999430;28;20030;-83
2023/03/05 08:28:41;;;;;;;2.72;1.00;;;9.70;80.20;;;;;;5017622;28;20029;-83
2023/03/05 08:31:12;;;;;;;1.75;1.00;;;9.70;80.30;;;;;;4999904;28;20030;-84
2023/03/05 08:33:38;;;;;;;2.85;1.20;;;9.70;80.30;;;;;;5016142;28;20022;-83
2023/03/05 08:36:05;;;;;;;1.95;0.90;;;9.70;80.30;;;;;;5014808;28;20040;-82
2023/03/05 08:38:30;;;;;;;2.22;1.00;;;9.70;80.40;;;;;;4999427;28;20067;-83
2023/03/05 08:40:56;;;;;;;2.22;1.00;;;9.70;80.30;;;;;;5015707;28;20531;-82
2023/03/05 08:43:21;;;;;;;2.65;1.05;;;9.70;80.40;;;;;;5015441;28;20057;-81
2023/03/05 08:45:48;;;;;;;3.25;1.02;;;9.70;80.30;;;;;;5014283;28;20030;-85
2023/03/05 08:48:14;;;;;;;2.95;1.27;;;9.70;80.30;;;;;;4998348;28;20116;-84
2023/03/05 08:50:39;;;;;;;2.75;1.10;;;9.70;80.10;;;;;;5015314;28;20045;-83
2023/03/05 08:53:05;;;;;;;3.22;1.10;;;9.70;80.00;;;;;;5014117;28;20034;-81
2023/03/05 08:55:31;;;;;;;2.75;1.20;;;9.60;80.00;;;;;;5016117;28;20033;-83
2023/03/05 08:57:56;;;;;;;1.85;1.05;;;9.60;79.90;;;;;;4998506;28;20080;-83
2023/03/05 09:00:22;;;;;;;2.38;1.10;;;9.70;80.00;;;;;;5014976;28;20036;-83
2023/03/05 09:02:47;;;;;;;2.03;1.30;;;9.70;80.00;;;;;;5014923;28;20420;-80
2023/03/05 09:05:13;;;;;;;3.42;1.27;;;9.70;80.00;;;;;;4997557;28;20030;-84
2023/03/05 09:07:38;;;;;;;3.80;1.35;;;9.70;80.00;;;;;;5014086;28;20044;-83
2023/03/05 09:10:05;;;;;;;3.00;1.35;;;9.70;80.00;;;;;;5014756;28;20025;-83
2023/03/05 09:12:30;;;;;;;4.10;1.30;;;9.70;80.10;;;;;;5014797;28;20048;-83
2023/03/05 09:14:56;;;;;;;2.40;1.23;;;9.70;80.00;;;;;;5014824;28;20053;-82
2023/03/05 09:17:22;;;;;;;2.55;1.20;;;9.70;80.00;;;;;;4998376;28;20081;-82
2023/03/05 09:19:49;;;;;;;3.88;1.25;;;9.70;80.00;;;;;;5015971;28;20029;-82
2023/03/05 09:22:14;;;;;;;4.18;1.50;;;9.70;79.90;;;;;;5010814;28;20057;-84
2023/03/05 09:24:40;;;;;;;2.88;1.20;;;9.70;79.90;;;;;;4998550;28;20385;-85
2023/03/05 09:27:06;;;;;;;3.55;1.48;;;9.70;79.80;;;;;;5000245;28;20238;-84
2023/03/05 09:29:31;;;;;;;2.92;1.30;;;9.70;79.80;;;;;;5000339;28;20033;-83
2023/03/05 09:31:57;;;;;;;3.42;1.30;;;9.70;79.90;;;;;;5000500;28;20034;-83
2023/03/05 09:34:22;;;;;;;3.38;1.30;;;9.70;79.90;;;;;;5000656;28;20492;-83
2023/03/05 09:36:48;;;;;;;3.33;1.40;;;9.70;79.90;;;;;;5000362;28;20026;-84
2023/03/05 09:39:15;;;;;;;2.33;1.08;;;9.70;79.90;;;;;;5000330;28;20148;-83
2023/03/05 09:42:02;;;;;;;3.25;1.23;;;9.70;79.90;;;;;;5000901;28;20182;-84
2023/03/05 09:44:31;;;;;;;3.97;1.33;;;9.70;80.00;;;;;;5019009;28;20034;-85
2023/03/05 09:47:21;;;;;;;2.72;1.30;;;9.70;80.00;;;;;;4999447;28;20452;-82
2023/03/05 09:50:24;;;;;;;3.75;1.38;;;9.70;80.00;;;;;;5017000;28;20403;-81
2023/03/05 09:52:56;;;;;;;2.38;1.27;;;9.70;80.00;;;;;;5015430;28;20021;-82
2023/03/05 09:55:33;;;;;;;2.95;1.40;;;9.70;80.00;;;;;;4999153;28;20030;-84
2023/03/05 09:58:05;;;;;;;2.45;1.23;;;9.70;80.00;;;;;;5000695;28;20036;-82
2023/03/05 10:00:37;;;;;;;3.05;1.40;;;9.70;80.00;;;;;;5018418;28;20065;-83
2023/03/05 10:03:14;;;;;;;3.00;1.35;;;9.70;80.00;;;;;;5017326;28;20030;-84
2023/03/05 10:05:49;;;;;;;2.63;1.27;;;9.70;80.00;;;;;;4996858;28;20025;-83
2023/03/05 10:08:21;;;;;;;2.60;1.15;;;9.70;80.00;;;;;;4997615;28;20021;-83
2023/03/05 10:10:49;;;;;;;2.72;1.33;;;9.70;79.90;;;;;;4996402;28;20036;-85
2023/03/05 10:13:37;;;;;;;3.63;1.50;;;9.70;80.00;;;;;;4997835;28;20040;-84
2023/03/05 10:16:27;;;;;;;2.08;1.23;;;9.70;80.00;;;;;;5013788;28;20068;-83
2023/03/05 10:19:19;;;;;;;2.57;1.30;;;9.80;79.90;;;;;;4985677;28;20034;-81
2023/03/05 10:22:15;;;;;;;4.30;1.48;;;9.80;79.60;;;;;;4995961;28;20030;-84
2023/03/05 10:25:00;;;;;;;2.88;1.17;;;9.90;79.20;;;;;;4978190;28;20026;-82
2023/03/05 10:27:41;;;;;;;2.03;1.10;;;10.00;78.80;;;;;;4977386;28;20030;-81
2023/03/05 10:30:30;;;;;;;3.08;1.42;;;10.10;78.50;;;;;;4992908;28;20043;-79
2023/03/05 10:33:20;;;;;;;3.20;1.52;;;10.20;78.20;;;;;;4955400;28;20038;-80
2023/03/05 10:36:10;;;;;;;2.83;1.45;;;10.30;78.00;;;;;;4991498;28;20523;-78
2023/03/05 10:39:14;;;;;;;3.30;1.60;;;10.30;77.80;;;;;;4977013;28;20072;-80
2023/03/05 10:41:55;;;;;;;4.32;1.50;;;10.30;77.80;;;;;;4994198;28;20038;-80
2023/03/05 10:44:47;;;;;;;2.45;1.30;;;10.40;77.80;;;;;;4974705;28;20034;-80
2023/03/05 10:47:59;;;;;;;2.80;1.40;;;10.40;77.80;;;;;;4993812;28;20508;-82
2023/03/05 10:50:27;;;;;;;3.13;1.38;;;10.40;77.70;;;;;;4991269;28;20493;-79
2023/03/05 10:53:29;;;;;;;2.65;1.20;;;10.40;77.80;;;;;;4976197;28;20082;-78
2023/03/05 10:55:57;;;;;;;2.85;1.20;;;10.40;77.80;;;;;;4976657;28;20060;-79
2023/03/05 10:58:23;;;;;;;2.75;1.10;;;10.40;77.90;;;;;;4976131;28;20125;-78
2023/03/05 11:01:05;;;;;;;3.45;1.50;;;10.30;77.80;;;;;;4976600;28;20030;-81
2023/03/05 11:03:54;;;;;;;2.55;1.20;;;10.30;77.90;;;;;;4976253;28;20037;-80
2023/03/05 11:06:44;;;;;;;1.85;1.20;;;10.30;78.00;;;;;;4975818;28;20058;-79
2023/03/05 11:09:28;;;;;;;2.95;1.35;;;10.30;78.10;;;;;;4976170;28;20770;-79
2023/03/05 11:12:05;;;;;;;3.08;1.20;;;10.20;78.20;;;;;;4975718;28;20386;-79
2023/03/05 11:14:32;;;;;;;2.03;1.15;;;10.30;78.30;;;;;;4976854;28;20113;-79
2023/03/05 11:17:00;;;;;;;2.67;1.30;;;10.20;78.90;;;;;;4976426;28;20026;-78
2023/03/05 11:19:33;;;;;;;2.47;1.23;;;10.20;78.40;;;;;;4977028;28;20085;-80
2023/03/05 11:22:07;;;;;;;2.88;1.30;;;10.20;78.40;;;;;;4979178;28;20053;-80
2023/03/05 11:24:32;;;;;;;2.58;1.25;;;10.20;78.40;;;;;;4979089;28;20061;-83
2023/03/05 11:26:58;;;;;;;2.10;1.08;;;10.30;78.40;;;;;;4978966;28;20019;-81
2023/03/05 11:29:32;;;;;;;3.03;1.30;;;10.30;78.30;;;;;;4995314;28;20496;-80
2023/03/05 11:32:24;;;;;;;2.17;1.27;;;10.30;78.10;;;;;;4978702;28;20472;-80
2023/03/05 11:34:50;;;;;;;1.85;1.20;;;10.40;78.00;;;;;;4977945;28;20054;-80
2023/03/05 11:37:26;;;;;;;2.30;1.17;;;10.40;77.90;;;;;;4978368;28;20031;-79
2023/03/05 11:40:21;;;;;;;3.08;1.20;;;10.40;77.70;;;;;;4997056;28;20038;-81
2023/03/05 11:42:57;;;;;;;2.60;1.30;;;10.50;77.50;;;;;;4987926;28;20097;-80
2023/03/05 11:45:25;;;;;;;3.00;1.10;;;10.50;77.30;;;;;;4977933;28;20793;-79
2023/03/05 11:47:53;;;;;;;1.98;1.13;;;10.60;77.30;;;;;;4977640;28;20035;-81
2023/03/05 11:50:30;;;;;;;2.13;1.30;;;10.60;77.30;;;;;;4995432;28;20022;-80
2023/03/05 11:53:01;;;;;;;2.10;1.20;;;10.60;77.30;;;;;;4978323;28;20019;-79
2023/03/05 11:55:33;;;;;;;2.65;1.25;;;10.60;77.30;;;;;;4996373;28;20026;-81
2023/03/05 11:58:13;;;;;;;2.35;1.23;;;10.60;77.40;;;;;;4996260;28;20038;-82
2023/03/05 12:00:43;;;;;;;2.42;1.27;;;10.50;77.40;;;;;;4995530;28;20034;-79
2023/03/05 12:03:20;;;;;;;2.53;1.23;;;10.50;77.40;;;;;;4978078;28;20125;-79
2023/03/05 12:06:14;;;;;;;2.33;1.27;;;10.50;77.40;;;;;;4979300;28;20497;-82
2023/03/05 12:08:45;;;;;;;1.70;1.05;;;10.60;77.40;;;;;;4993947;28;20049;-81
2023/03/05 12:11:31;;;;;;;1.95;1.20;;;10.50;77.30;;;;;;4989514;28;20027;-83
2023/03/05 12:14:08;;;;;;;1.63;1.10;;;10.50;77.40;;;;;;4979025;28;20038;-83
2023/03/05 12:16:53;;;;;;;2.63;1.30;;;10.50;77.50;;;;;;4995862;28;20093;-84
2023/03/05 12:20:00;;;;;;;1.80;0.93;;;10.50;77.60;;;;;;4997454;28;20539;-84
2023/03/05 12:22:38;;;;;;;1.70;1.10;;;10.50;77.60;;;;;;4966223;28;20434;-83
2023/03/05 12:25:31;;;;;;;2.97;1.10;;;10.40;77.70;;;;;;4997940;28;20099;-82
2023/03/05 12:27:56;;;;;;;2.35;1.13;;;10.40;77.70;;;;;;4977855;28;20019;-82
2023/03/05 12:30:34;;;;;;;2.08;0.95;;;10.40;77.80;;;;;;4992550;28;20118;-84
2023/03/05 12:33:04;;;;;;;2.35;1.10;;;10.40;77.80;;;;;;4987774;28;20362;-81
2023/03/05 12:35:31;;;;;;;3.63;1.23;;;10.50;77.90;;;;;;4970658;28;20432;-83
2023/03/05 12:38:00;;;;;;;1.85;1.10;;;10.50;77.80;;;;;;4987361;28;20050;-83
2023/03/05 12:40:32;;;;;;;2.83;1.20;;;10.40;77.70;;;;;;4971683;28;20074;-83
2023/03/05 12:43:26;;;;;;;2.75;1.25;;;10.50;77.70;;;;;;4987746;28;20434;-83
2023/03/05 12:46:27;;;;;;;2.42;1.05;;;10.50;77.70;;;;;;4970780;28;20552;-83
2023/03/05 12:48:53;;;;;;;2.30;1.30;;;10.50;77.70;;;;;;4971412;28;20056;-83
2023/03/05 12:51:46;;;;;;;1.58;1.10;;;10.50;77.70;;;;;;4971571;28;20492;-82
2023/03/05 12:54:30;;;;;;;2.35;1.13;;;10.50;77.60;;;;;;4986879;28;20513;-82
2023/03/05 12:57:04;;;;;;;3.83;1.45;;;10.50;77.70;;;;;;4971239;28;20041;-82
2023/03/05 13:00:09;;;;;;;2.63;1.00;;;10.50;77.60;;;;;;4987319;28;20117;-81
2023/03/05 13:02:42;;;;;;;2.55;1.20;;;10.50;77.70;;;;;;4978547;28;20038;-82
2023/03/05 13:05:42;;;;;;;1.75;1.10;;;10.50;77.70;;;;;;4987047;28;20041;-82
2023/03/05 13:08:09;;;;;;;2.78;1.13;;;10.40;77.70;;;;;;4984031;28;20072;-83